Time;durP1;ratioP1;P1;durP2;ratioP2;P2;SDS_P1;SDS_P2;PMS_P1;PMS_P2;Temp;Humidity;BMP_temperature;BMP_pressure;BME280_temperature;BME280_humidity;BME280_pressure;Samples;Min_cycle;Max_cycle;Signal;HPM_P1;HPM_P2
2022/09/29 00:04:33;;;;;;;;;;;;;;;20.14;43.84;94245.66;10522935;28;2960;-46
2022/09/29 00:09:33;;;;;;;;;;;;;;;20.12;43.81;94247.81;10529010;28;3067;-47
2022/09/29 00:14:34;;;;;;;;;;;;;;;20.10;43.88;94250.75;10521116;28;3035;-44
2022/09/29 00:19:34;;;;;;;;;;;;;;;20.12;43.48;94237.28;10526086;28;3176;-48
2022/09/29 00:24:34;;;;;;;;;;;;;;;20.08;44.09;94241.63;10523818;28;3067;-44
2022/09/29 00:29:35;;;;;;;;;;;;;;;20.06;43.79;94244.56;10524694;28;3015;-47
2022/09/29 00:34:35;;;;;;;;;;;;;;;20.07;43.66;94242.72;10515793;28;3027;-46
2022/09/29 00:39:35;;;;;;;;;;;;;;;20.05;43.63;94236.97;10531825;28;3016;-46
2022/09/29 00:44:54;;;;;;;;;;;;;;;20.04;43.78;94227.53;10529460;28;3165;-47
2022/09/29 00:49:56;;;;;;;;;;;;;;;20.04;43.73;94227.53;10522846;28;3148;-51
2022/09/29 00:55:09;;;;;;;;;;;;;;;20.01;43.62;94226.28;10521288;28;3029;-45
2022/09/29 01:00:10;;;;;;;;;;;;;;;20.01;44.02;94215.75;10501231;28;3110;-46
2022/09/29 01:05:22;;;;;;;;;;;;;;;20.00;43.92;94197.66;10514075;28;3037;-45
2022/09/29 01:10:22;;;;;;;;;;;;;;;19.99;43.79;94202.13;10532345;28;3008;-48
2022/09/29 01:15:22;;;;;;;;;;;;;;;19.98;43.63;94208.50;10515107;28;3011;-47
2022/09/29 01:20:23;;;;;;;;;;;;;;;19.96;43.70;94201.97;10527179;28;2657;-47
2022/09/29 01:25:49;;;;;;;;;;;;;;;19.95;43.70;94200.41;10516938;28;3095;-49
2022/09/29 01:30:53;;;;;;;;;;;;;;;19.94;43.50;94198.88;10515233;28;3083;-45
2022/09/29 01:35:57;;;;;;;;;;;;;;;19.95;43.88;94205.69;10532196;28;2666;-46
2022/09/29 01:41:06;;;;;;;;;;;;;;;19.91;43.70;94205.53;10545541;27;2755;-50
2022/09/29 01:46:15;;;;;;;;;;;;;;;19.90;43.71;94203.22;10522924;28;3054;-45
2022/09/29 01:51:16;;;;;;;;;;;;;;;19.89;43.85;94202.44;10529840;27;2681;-45
2022/09/29 01:56:39;;;;;;;;;;;;;;;19.89;43.80;94194.53;10525487;28;3030;-49
2022/09/29 02:01:40;;;;;;;;;;;;;;;19.89;43.79;94193.75;10502975;28;3158;-49
2022/09/29 02:07:01;;;;;;;;;;;;;;;19.86;43.67;94202.28;10538716;28;3365;-44
2022/09/29 02:12:01;;;;;;;;;;;;;;;19.86;43.61;94202.28;10526093;28;3108;-45
2022/09/29 02:17:04;;;;;;;;;;;;;;;19.86;43.96;94202.28;10502056;28;2800;-47
2022/09/29 02:22:04;;;;;;;;;;;;;;;19.85;43.68;94200.72;10520692;28;2768;-49
2022/09/29 02:27:04;;;;;;;;;;;;;;;19.84;43.71;94193.91;10519993;28;3048;-46
2022/09/29 02:32:05;;;;;;;;;;;;;;;19.82;43.82;94196.06;10512130;28;2968;-48
2022/09/29 02:37:08;;;;;;;;;;;;;;;19.81;43.76;94200.56;10515946;28;2997;-44
2022/09/29 02:42:09;;;;;;;;;;;;;;;19.81;43.74;94205.03;10519592;28;2753;-45
2022/09/29 02:47:12;;;;;;;;;;;;;;;19.81;43.71;94210.28;10521865;28;2975;-47
2022/09/29 02:52:31;;;;;;;;;;;;;;;19.80;43.88;94206.91;10511467;28;2994;-46
2022/09/29 02:57:38;;;;;;;;;;;;;;;19.79;43.79;94201.94;10512288;28;3031;-46
2022/09/29 03:02:39;;;;;;;;;;;;;;;19.78;43.86;94197.78;10528345;28;3034;-45
2022/09/29 03:07:39;;;;;;;;;;;;;;;19.76;43.68;94194.66;10516029;28;2974;-48
2022/09/29 03:12:39;;;;;;;;;;;;;;;19.75;43.71;94186.00;10522634;28;3074;-49
2022/09/29 03:17:40;;;;;;;;;;;;;;;19.75;43.90;94180.75;10520898;28;2722;-46
2022/09/29 03:22:40;;;;;;;;;;;;;;;19.74;43.71;94178.44;10514075;28;3054;-45
2022/09/29 03:27:41;;;;;;;;;;;;;;;19.73;44.00;94171.59;10517556;28;3007;-45
2022/09/29 03:32:41;;;;;;;;;;;;;;;19.84;43.55;94180.78;10529423;28;2975;-48
2022/09/29 03:37:42;;;;;;;;;;;;;;;19.86;43.36;94191.75;10523921;28;3014;-48
2022/09/29 03:42:44;;;;;;;;;;;;;;;19.82;42.98;94175.81;10530781;28;2701;-49
2022/09/29 03:47:44;;;;;;;;;;;;;;;19.82;42.97;94164.53;10519652;28;3077;-49
2022/09/29 03:52:45;;;;;;;;;;;;;;;19.82;42.59;94164.53;10519735;28;3177;-45
2022/09/29 03:57:45;;;;;;;;;;;;;;;19.84;42.39;94180.78;10531838;28;2807;-45
2022/09/29 04:02:45;;;;;;;;;;;;;;;19.89;42.32;94186.66;10536541;28;3051;-44
2022/09/29 04:07:45;;;;;;;;;;;;;;;19.92;42.17;94195.78;10528146;28;3101;-46
2022/09/29 04:12:46;;;;;;;;;;;;;;;19.94;41.92;94189.16;10528846;28;3023;-44
2022/09/29 04:17:46;;;;;;;;;;;;;;;19.99;41.91;94188.25;10529573;28;3034;-46
2022/09/29 04:22:46;;;;;;;;;;;;;;;20.01;41.50;94188.69;10534884;28;2745;-45
2022/09/29 04:27:47;;;;;;;;;;;;;;;20.04;41.76;94195.97;10528931;28;3047;-45
2022/09/29 04:32:47;;;;;;;;;;;;;;;20.07;41.65;94190.84;10531384;28;2689;-46
2022/09/29 04:37:47;;;;;;;;;;;;;;;20.11;41.68;94178.63;10514825;28;2972;-47
2022/09/29 04:42:47;;;;;;;;;;;;;;;20.15;41.67;94192.72;10528822;28;3018;-49
2022/09/29 04:47:48;;;;;;;;;;;;;;;20.19;42.00;94204.25;10518408;28;3393;-45
2022/09/29 04:52:48;;;;;;;;;;;;;;;20.20;41.46;94190.00;10522415;28;3013;-47
2022/09/29 04:57:48;;;;;;;;;;;;;;;20.23;41.49;94186.75;10536441;28;2948;-46
2022/09/29 05:02:51;;;;;;;;;;;;;;;20.24;41.32;94177.75;10535224;27;3027;-46
2022/09/29 05:07:51;;;;;;;;;;;;;;;20.26;41.32;94159.81;10537434;28;3238;-47
2022/09/29 05:12:52;;;;;;;;;;;;;;;20.27;41.51;94163.22;10527168;28;3115;-46
2022/09/29 05:17:52;;;;;;;;;;;;;;;20.30;41.41;94164.47;10521228;28;2983;-50
2022/09/29 05:22:52;;;;;;;;;;;;;;;20.33;41.26;94169.09;10523033;28;2881;-47
2022/09/29 05:27:53;;;;;;;;;;;;;;;20.35;41.26;94162.44;10522610;28;3605;-45
2022/09/29 05:32:53;;;;;;;;;;;;;;;20.37;41.36;94170.81;10519800;28;3148;-48
2022/09/29 05:37:53;;;;;;;;;;;;;;;20.39;41.31;94157.31;10517626;28;3191;-49
2022/09/29 05:42:54;;;;;;;;;;;;;;;20.39;41.21;94141.53;10522019;28;2935;-46
2022/09/29 05:47:54;;;;;;;;;;;;;;;20.42;41.09;94152.25;10516273;28;3508;-45
2022/09/29 05:52:54;;;;;;;;;;;;;;;20.45;41.17;94156.88;10514316;28;3154;-48
2022/09/29 05:57:54;;;;;;;;;;;;;;;20.48;41.54;94164.16;10531497;28;2881;-46
2022/09/29 06:02:56;;;;;;;;;;;;;;;20.48;41.19;94166.78;10536508;28;2849;-46
2022/09/29 06:07:57;;;;;;;;;;;;;;;20.49;40.90;94163.06;10539601;28;3131;-46
2022/09/29 06:12:57;;;;;;;;;;;;;;;20.49;40.84;94157.78;10534665;28;3416;-48
2022/09/29 06:17:58;;;;;;;;;;;;;;;20.50;40.60;94161.22;10508643;28;2817;-46
2022/09/29 06:22:58;;;;;;;;;;;;;;;20.51;40.82;94163.53;10535528;28;3233;-48
2022/09/29 06:27:58;;;;;;;;;;;;;;;20.53;40.93;94157.94;10541731;28;3131;-47
2022/09/29 06:32:58;;;;;;;;;;;;;;;20.53;40.89;94152.69;10524917;28;2829;-46
2022/09/29 06:38:00;;;;;;;;;;;;;;;20.56;40.63;94150.22;10513762;28;3414;-45
2022/09/29 06:43:01;;;;;;;;;;;;;;;20.58;40.69;94158.56;10497160;28;2911;-46
2022/09/29 06:48:02;;;;;;;;;;;;;;;20.57;40.97;94159.66;10513513;28;3187;-48
2022/09/29 06:53:02;;;;;;;;;;;;;;;20.59;40.56;94170.63;10500489;28;3083;-45
2022/09/29 06:58:04;;;;;;;;;;;;;;;20.59;40.74;94177.75;10525340;28;3292;-48
2022/09/29 07:03:05;;;;;;;;;;;;;;;20.62;40.76;94185.81;10511468;28;3126;-47
2022/09/29 07:08:06;;;;;;;;;;;;;;;20.62;40.60;94182.41;10530080;28;3212;-47
2022/09/29 07:13:08;;;;;;;;;;;;;;;20.63;40.67;94184.72;10526831;28;3247;-45
2022/09/29 07:18:08;;;;;;;;;;;;;;;20.65;40.45;94184.44;10533044;28;2864;-44
2022/09/29 07:23:09;;;;;;;;;;;;;;;20.65;40.67;94187.81;10525883;28;3378;-44
2022/09/29 07:28:09;;;;;;;;;;;;;;;20.65;40.67;94185.19;10523365;28;2889;-45
2022/09/29 07:33:10;;;;;;;;;;;;;;;20.67;40.67;94185.66;10516811;28;2935;-45
2022/09/29 07:38:11;;;;;;;;;;;;;;;20.67;40.58;94192.81;10514192;28;3273;-48
2022/09/29 07:43:11;;;;;;;;;;;;;;;20.68;40.68;94187.22;10522303;28;3106;-45
2022/09/29 07:48:11;;;;;;;;;;;;;;;20.70;40.52;94190.31;10512747;28;3336;-44
2022/09/29 07:53:12;;;;;;;;;;;;;;;20.71;40.76;94186.56;10514171;28;2918;-49
2022/09/29 07:58:12;;;;;;;;;;;;;;;20.71;40.48;94188.47;10520997;28;3257;-46
2022/09/29 08:03:12;;;;;;;;;;;;;;;20.73;40.44;94192.31;10543401;28;3131;-48
2022/09/29 08:08:13;;;;;;;;;;;;;;;20.73;40.54;94194.94;10536646;28;3107;-49
2022/09/29 08:13:13;;;;;;;;;;;;;;;20.76;40.75;94193.56;10532579;28;3013;-45
2022/09/29 08:18:13;;;;;;;;;;;;;;;20.76;40.94;94201.44;10520517;28;2972;-47
2022/09/29 08:23:14;;;;;;;;;;;;;;;20.77;40.68;94205.66;10501508;28;3005;-46
2022/09/29 08:28:15;;;;;;;;;;;;;;;20.79;40.69;94220.03;10500633;28;2887;-52
2022/09/29 08:33:15;;;;;;;;;;;;;;;20.81;40.62;94225.00;10514933;28;2880;-46
2022/09/29 08:38:17;;;;;;;;;;;;;;;20.82;40.84;94224.69;10521023;28;2932;-46
2022/09/29 08:43:19;;;;;;;;;;;;;;;20.87;42.10;94221.13;10517858;28;3286;-47
2022/09/29 08:48:21;;;;;;;;;;;;;;;20.89;41.44;94218.94;10536720;28;3397;-45
2022/09/29 08:53:21;;;;;;;;;;;;;;;20.95;43.11;94218.50;10525401;28;2996;-45
2022/09/29 08:58:22;;;;;;;;;;;;;;;20.92;42.02;94221.72;10511805;28;3171;-45
2022/09/29 09:03:41;;;;;;;;;;;;;;;20.91;43.28;94227.31;10493779;28;3234;-47
2022/09/29 09:09:14;;;;;;;;;;;;;;;20.89;42.19;94230.28;10522251;28;3491;-49
2022/09/29 09:14:17;;;;;;;;;;;;;;;21.00;44.49;94226.22;10485721;28;2873;-43
2022/09/29 09:19:18;;;;;;;;;;;;;;;20.92;44.33;94229.63;10514847;28;3320;-45
2022/09/29 09:24:21;;;;;;;;;;;;;;;20.83;45.33;94239.41;10530022;28;3178;-44
2022/09/29 09:29:23;;;;;;;;;;;;;;;20.79;45.24;94246.34;10517792;27;2939;-54
2022/09/29 09:34:42;;;;;;;;;;;;;;;20.75;44.80;94244.69;10510247;28;2904;-62
2022/09/29 09:39:47;;;;;;;;;;;;;;;20.72;45.10;94253.97;10510130;28;3171;-68
2022/09/29 09:44:51;;;;;;;;;;;;;;;20.71;44.73;94249.78;10529371;27;3548;-47
2022/09/29 09:49:53;;;;;;;;;;;;;;;20.68;44.34;94245.13;10522890;28;3242;-50
2022/09/29 09:54:55;;;;;;;;;;;;;;;20.70;45.32;94250.88;10520473;28;2896;-49
2022/09/29 09:59:56;;;;;;;;;;;;;;;20.70;45.23;94253.50;10510808;28;3250;-48
2022/09/29 10:04:59;;;;;;;;;;;;;;;20.70;45.17;94247.44;10502758;28;3091;-45
2022/09/29 10:10:01;;;;;;;;;;;;;;;20.72;45.07;94248.69;10522616;28;3146;-45
2022/09/29 10:15:05;;;;;;;;;;;;;;;20.73;45.24;94258.13;10522111;28;3376;-47
2022/09/29 10:20:06;;;;;;;;;;;;;;;20.76;44.98;94262.78;10528479;28;2877;-58
2022/09/29 10:25:17;;;;;;;;;;;;;;;20.77;44.68;94253.03;10521368;28;2903;-62
2022/09/29 10:30:18;;;;;;;;;;;;;;;20.81;45.02;94267.88;10493992;28;3239;-48
2022/09/29 10:35:22;;;;;;;;;;;;;;;20.82;44.61;94261.56;10501545;28;3221;-46
2022/09/29 10:40:23;;;;;;;;;;;;;;;20.83;44.63;94267.59;10514379;28;2988;-49
2022/09/29 10:45:26;;;;;;;;;;;;;;;20.83;45.04;94270.25;10515720;28;2876;-49
2022/09/29 10:50:28;;;;;;;;;;;;;;;20.83;44.85;94272.88;10523704;28;3204;-47
2022/09/29 10:55:28;;;;;;;;;;;;;;;20.84;45.33;94280.44;10528945;28;3184;-49
2022/09/29 11:00:36;;;;;;;;;;;;;;;20.91;45.07;94272.88;10518489;28;3440;-51
2022/09/29 11:05:37;;;;;;;;;;;;;;;20.86;44.88;94273.00;10529826;28;3334;-47
2022/09/29 11:10:38;;;;;;;;;;;;;;;20.89;44.86;94280.31;10523023;28;3226;-48
2022/09/29 11:15:40;;;;;;;;;;;;;;;20.91;44.70;94290.53;10522967;28;3122;-47
2022/09/29 11:20:40;;;;;;;;;;;;;;;20.80;43.64;94287.44;10526472;28;3341;-43
2022/09/29 11:25:40;;;;;;;;;;;;;;;20.41;42.11;94284.13;10550377;27;3170;-45
2022/09/29 11:30:40;;;;;;;;;;;;;;;20.13;42.25;94281.69;10536136;28;3119;-44
2022/09/29 11:36:07;;;;;;;;;;;;;;;19.96;42.35;94288.78;10544269;28;3377;-45
2022/09/29 11:41:26;;;;;;;;;;;;;;;20.06;43.90;94293.75;10539038;28;3110;-45
2022/09/29 11:46:53;;;;;;;;;;;;;;;20.35;43.80;94298.50;10542243;28;3289;-42
2022/09/29 11:51:54;;;;;;;;;;;;;;;20.51;43.48;94297.75;10511652;28;3300;-44
2022/09/29 11:56:56;;;;;;;;;;;;;;;20.62;43.46;94306.16;10521705;28;2924;-44
2022/09/29 12:01:57;;;;;;;;;;;;;;;20.68;43.42;94302.28;10536171;27;2837;-46
2022/09/29 12:07:16;;;;;;;;;;;;;;;20.71;43.68;94299.06;10524207;28;3186;-44
2022/09/29 12:12:29;;;;;;;;;;;;;;;20.83;43.46;94302.63;10531993;27;3142;-45
2022/09/29 12:17:32;;;;;;;;;;;;;;;20.82;43.44;94297.63;10498561;28;2947;-46
2022/09/29 12:22:32;;;;;;;;;;;;;;;20.82;43.63;94293.16;10525827;28;3136;-46
2022/09/29 12:27:36;;;;;;;;;;;;;;;20.83;43.42;94297.34;10509244;28;3096;-45
2022/09/29 12:32:41;;;;;;;;;;;;;;;20.86;43.42;94298.56;10513087;28;3452;-48
2022/09/29 12:38:20;;;;;;;;;;;;;;;20.86;43.59;94296.72;10531780;28;3142;-46
2022/09/29 12:43:23;;;;;;;;;;;;;;;20.88;43.70;94294.56;10432281;28;3118;-43
2022/09/29 12:48:38;;;;;;;;;;;;;;;20.88;43.68;94296.41;10470368;28;3221;-42
2022/09/29 12:53:42;;;;;;;;;;;;;;;20.90;43.58;94292.38;10511964;28;3064;-43
2022/09/29 12:58:44;;;;;;;;;;;;;;;20.91;43.84;94287.91;10521226;28;3216;-47
2022/09/29 13:03:44;;;;;;;;;;;;;;;20.93;43.88;94299.69;10510384;28;3190;-43
2022/09/29 13:08:57;;;;;;;;;;;;;;;20.95;43.77;94291.47;10530164;28;3512;-43
2022/09/29 13:14:20;;;;;;;;;;;;;;;20.96;43.67;94293.78;10507736;28;3258;-44
2022/09/29 13:19:40;;;;;;;;;;;;;;;21.00;43.47;94299.97;10516856;28;3245;-46
2022/09/29 13:24:43;;;;;;;;;;;;;;;21.00;43.53;94305.25;10529274;28;3142;-44
2022/09/29 13:29:45;;;;;;;;;;;;;;;21.01;43.44;94303.38;10550098;27;2881;-45
2022/09/29 13:34:47;;;;;;;;;;;;;;;21.01;43.56;94306.81;10531245;28;3215;-43
2022/09/29 13:39:54;;;;;;;;;;;;;;;21.02;43.85;94318.13;10535566;28;3079;-43
2022/09/29 13:45:25;;;;;;;;;;;;;;;21.03;43.80;94317.06;10538919;27;3281;-44
2022/09/29 13:50:43;;;;;;;;;;;;;;;21.03;43.52;94319.69;10511146;28;3104;-44
2022/09/29 13:55:53;;;;;;;;;;;;;;;21.04;43.39;94323.88;10532631;28;2786;-45
2022/09/29 14:00:54;;;;;;;;;;;;;;;21.05;43.65;94320.94;10527726;28;2977;-49
2022/09/29 14:05:55;;;;;;;;;;;;;;;21.07;43.82;94333.78;10536306;27;2932;-44
2022/09/29 14:11:03;;;;;;;;;;;;;;;21.07;43.37;94336.41;10555926;27;3094;-44
2022/09/29 14:16:10;;;;;;;;;;;;;;;21.08;43.50;94344.00;10530281;28;3145;-45
2022/09/29 14:21:31;;;;;;;;;;;;;;;21.09;43.76;94350.06;10510877;28;3151;-44
2022/09/29 14:26:44;;;;;;;;;;;;;;;21.12;43.72;94353.94;10528739;28;3222;-44
2022/09/29 14:31:46;;;;;;;;;;;;;;;21.12;43.84;94354.72;10511452;28;2873;-47
2022/09/29 14:36:47;;;;;;;;;;;;;;;21.13;43.62;94360.75;10522621;28;2906;-46
2022/09/29 14:41:48;;;;;;;;;;;;;;;21.14;44.00;94362.31;10529941;28;2825;-46
2022/09/29 14:52:28;;;;;;;;;;;;;;;21.17;43.60;94375.63;10513357;28;3204;-54
2022/09/29 14:57:31;;;;;;;;;;;;;;;21.16;43.65;94382.00;10503562;28;3183;-44
2022/09/29 15:02:34;;;;;;;;;;;;;;;21.19;43.58;94383.22;10509565;28;3171;-45
2022/09/29 15:07:35;;;;;;;;;;;;;;;21.18;43.65;94385.09;10511918;28;3135;-47
2022/09/29 15:12:35;;;;;;;;;;;;;;;21.21;43.80;94394.22;10505219;28;3095;-45
2022/09/29 15:17:53;;;;;;;;;;;;;;;21.19;43.67;94399.81;10540382;28;3154;-46
2022/09/29 15:22:53;;;;;;;;;;;;;;;21.21;43.56;94402.13;10517426;28;2849;-44
2022/09/29 15:27:58;;;;;;;;;;;;;;;21.23;43.68;94402.59;10528046;28;2862;-44
2022/09/29 15:33:23;;;;;;;;;;;;;;;21.23;43.40;94394.69;10524730;28;3185;-46
2022/09/29 15:38:23;;;;;;;;;;;;;;;21.25;43.28;94395.94;10537166;28;2974;-47
2022/09/29 15:43:24;;;;;;;;;;;;;;;21.26;43.91;94397.50;10538066;28;3373;-44
2022/09/29 15:48:28;;;;;;;;;;;;;;;21.27;43.56;94406.19;10520979;28;3288;-43
2022/09/29 15:53:29;;;;;;;;;;;;;;;21.29;43.52;94398.75;10519149;28;3554;-47
2022/09/29 15:58:33;;;;;;;;;;;;;;;21.31;43.54;94399.22;10511986;28;3232;-44
2022/09/29 16:03:39;;;;;;;;;;;;;;;21.34;43.13;94403.84;10520966;28;3321;-44
2022/09/29 16:08:42;;;;;;;;;;;;;;;21.33;43.38;94407.59;10516941;28;2975;-43
2022/09/29 16:13:45;;;;;;;;;;;;;;;21.35;42.89;94403.53;10514660;28;3238;-47
2022/09/29 16:18:47;;;;;;;;;;;;;;;21.34;43.18;94403.84;10535557;27;3285;-50
2022/09/29 16:23:51;;;;;;;;;;;;;;;21.36;43.14;94412.22;10513393;28;2965;-44
2022/09/29 16:28:58;;;;;;;;;;;;;;;21.41;43.22;94414.72;10517446;28;3140;-44
2022/09/29 16:34:01;;;;;;;;;;;;;;;21.46;43.05;94417.19;10516995;28;3314;-44
2022/09/29 16:39:05;;;;;;;;;;;;;;;21.47;42.96;94419.53;10531339;28;3347;-45
2022/09/29 16:44:17;;;;;;;;;;;;;;;21.53;43.33;94433.31;10544094;27;3071;-46
2022/09/29 16:49:28;;;;;;;;;;;;;;;21.41;43.17;94441.09;10515092;28;3301;-46
2022/09/29 16:54:31;;;;;;;;;;;;;;;21.47;43.12;94455.66;10509028;28;3003;-47
2022/09/29 16:59:32;;;;;;;;;;;;;;;21.50;43.37;94447.91;10520663;28;3328;-47
2022/09/29 17:04:32;;;;;;;;;;;;;;;21.54;43.16;94458.59;10520246;28;3429;-45
2022/09/29 17:09:32;;;;;;;;;;;;;;;21.56;42.50;94464.34;10510204;28;3229;-48
2022/09/29 17:14:33;;;;;;;;;;;;;;;21.57;43.13;94476.44;10516914;28;3329;-44
2022/09/29 17:19:33;;;;;;;;;;;;;;;21.57;42.58;94487.78;10521034;28;3281;-45
2022/09/29 17:24:35;;;;;;;;;;;;;;;21.56;42.76;94495.97;10520937;28;3218;-47
2022/09/29 17:29:36;;;;;;;;;;;;;;;21.53;42.66;94497.41;10550193;27;3313;-45
2022/09/29 17:34:36;;;;;;;;;;;;;;;21.55;42.12;94505.78;10539590;28;3328;-46
2022/09/29 17:39:36;;;;;;;;;;;;;;;21.55;42.31;94511.03;10534839;28;3305;-45
2022/09/29 17:44:41;;;;;;;;;;;;;;;21.55;42.65;94521.59;10529959;28;3309;-46
2022/09/29 17:49:42;;;;;;;;;;;;;;;21.57;42.44;94529.19;10544819;28;3234;-47
2022/09/29 17:54:43;;;;;;;;;;;;;;;21.56;42.54;94524.97;10537224;28;3270;-44
2022/09/29 17:59:44;;;;;;;;;;;;;;;21.56;42.42;94538.16;10529380;28;3003;-48
2022/09/29 18:04:47;;;;;;;;;;;;;;;21.56;42.12;94538.16;10531794;28;3410;-47
2022/09/29 18:09:47;;;;;;;;;;;;;;;21.56;41.99;94536.31;10516562;28;3408;-44
2022/09/29 18:14:48;;;;;;;;;;;;;;;21.57;42.11;94535.25;10520448;28;3022;-48
2022/09/29 18:19:48;;;;;;;;;;;;;;;21.56;42.72;94535.53;10536450;28;3984;-47
2022/09/29 18:24:48;;;;;;;;;;;;;;;21.57;42.42;94534.47;10533703;28;3641;-45
2022/09/29 18:29:49;;;;;;;;;;;;;;;21.55;42.31;94541.91;10522802;28;3301;-47
2022/09/29 18:34:51;;;;;;;;;;;;;;;21.54;42.25;94535.84;10528760;28;2987;-58
2022/09/29 18:39:51;;;;;;;;;;;;;;;21.57;42.49;94542.38;10515873;28;3369;-47
2022/09/29 18:44:52;;;;;;;;;;;;;;;21.56;42.38;94548.72;10507734;28;3167;-45
2022/09/29 18:49:52;;;;;;;;;;;;;;;21.52;42.45;94547.78;10511674;28;3249;-44
2022/09/29 18:54:52;;;;;;;;;;;;;;;21.57;42.26;94545.00;10509945;28;2948;-47
2022/09/29 18:59:52;;;;;;;;;;;;;;;21.61;42.99;94546.72;10525228;28;3337;-46
2022/09/29 19:04:53;;;;;;;;;;;;;;;21.59;42.38;94548.09;10546436;28;3634;-46
2022/09/29 19:09:53;;;;;;;;;;;;;;;21.58;42.64;94560.50;10538636;28;3248;-47
2022/09/29 19:14:54;;;;;;;;;;;;;;;21.55;42.44;94558.50;10543033;28;3277;-46
2022/09/29 19:19:55;;;;;;;;;;;;;;;21.54;43.06;94561.44;10515095;28;3315;-48
2022/09/29 19:24:55;;;;;;;;;;;;;;;21.54;42.59;94556.94;10533800;28;3301;-46
2022/09/29 19:29:56;;;;;;;;;;;;;;;21.53;42.59;94570.44;10555436;28;3010;-49
2022/09/29 19:34:56;;;;;;;;;;;;;;;21.50;42.83;94569.19;10526983;28;3246;-45
2022/09/29 19:39:56;;;;;;;;;;;;;;;21.49;42.89;94577.41;10511017;28;3360;-46
2022/09/29 19:44:57;;;;;;;;;;;;;;;21.47;42.45;94569.81;10514529;28;3347;-48
2022/09/29 19:55:16;;;;;;;;;;;;;;;21.43;42.70;94560.19;10516648;28;3304;-45
2022/09/29 20:00:19;;;;;;;;;;;;;;;21.41;43.06;94568.38;10525677;28;3280;-47
2022/09/29 20:05:20;;;;;;;;;;;;;;;21.39;42.71;94569.78;10520773;28;3356;-47
2022/09/29 20:10:20;;;;;;;;;;;;;;;21.37;42.90;94577.22;10505004;28;3019;-46
2022/09/29 20:15:21;;;;;;;;;;;;;;;21.35;42.71;94588.06;10523637;28;3325;-45
2022/09/29 20:20:21;;;;;;;;;;;;;;;21.33;42.67;94590.22;10502317;28;3286;-46
2022/09/29 20:25:22;;;;;;;;;;;;;;;21.32;43.06;94591.31;10508338;28;3301;-47
2022/09/29 20:30:25;;;;;;;;;;;;;;;21.33;42.85;94597.38;10515747;28;3245;-45
2022/09/29 20:35:25;;;;;;;;;;;;;;;21.30;43.09;94598.75;10510376;28;3023;-47
2022/09/29 20:40:25;;;;;;;;;;;;;;;21.31;43.18;94604.81;10505112;28;3059;-46
2022/09/29 20:45:31;;;;;;;;;;;;;;;21.26;43.25;94616.25;10501030;28;3606;-45
2022/09/29 20:50:32;;;;;;;;;;;;;;;21.29;42.87;94634.09;10513197;28;3385;-48
2022/09/29 20:55:34;;;;;;;;;;;;;;;21.33;42.91;94636.91;10523250;28;2935;-46
2022/09/29 21:00:34;;;;;;;;;;;;;;;21.31;42.63;94636.44;10521111;28;3359;-46
2022/09/29 21:05:35;;;;;;;;;;;;;;;21.28;43.12;94634.41;10525127;28;3237;-47
2022/09/29 21:10:35;;;;;;;;;;;;;;;21.19;43.58;94639.63;10530473;28;3245;-49
2022/09/29 21:15:35;;;;;;;;;;;;;;;21.19;44.23;94644.13;10523679;28;3177;-48
2022/09/29 21:20:38;;;;;;;;;;;;;;;21.18;44.17;94653.13;10521866;28;3297;-50
2022/09/29 21:25:38;;;;;;;;;;;;;;;21.18;44.66;94646.00;10521170;28;3288;-45
2022/09/29 21:30:38;;;;;;;;;;;;;;;21.19;44.73;94655.44;10543151;28;2972;-45
2022/09/29 21:35:39;;;;;;;;;;;;;;;21.22;44.77;94652.22;10541104;28;3269;-45
2022/09/29 21:40:39;;;;;;;;;;;;;;;21.21;44.71;94652.50;10532662;28;3248;-47
2022/09/29 21:45:39;;;;;;;;;;;;;;;21.22;44.94;94654.06;10519059;28;3292;-45
2022/09/29 21:50:39;;;;;;;;;;;;;;;21.21;44.62;94660.41;10535257;28;3555;-47
2022/09/29 21:55:40;;;;;;;;;;;;;;;21.22;44.44;94664.59;10538952;28;3397;-47
2022/09/29 22:00:41;;;;;;;;;;;;;;;21.19;44.86;94665.19;10523546;28;3059;-45
2022/09/29 22:05:41;;;;;;;;;;;;;;;21.20;44.64;94664.13;10518762;28;3456;-50
2022/09/29 22:10:51;;;;;;;;;;;;;;;21.16;44.89;94666.59;10517258;28;3244;-46
2022/09/29 22:15:53;;;;;;;;;;;;;;;21.18;44.50;94668.94;10512240;28;3030;-49
2022/09/29 22:20:55;;;;;;;;;;;;;;;21.17;44.61;94680.53;10512232;28;3296;-45
2022/09/29 22:25:55;;;;;;;;;;;;;;;21.20;44.54;94682.56;10522314;28;2959;-48
2022/09/29 22:31:02;;;;;;;;;;;;;;;21.17;44.51;94680.53;10522650;28;3301;-46
2022/09/29 22:36:03;;;;;;;;;;;;;;;21.18;44.58;94690.78;10504464;28;3418;-48
2022/09/29 22:41:11;;;;;;;;;;;;;;;21.14;44.61;94689.06;10511839;28;3361;-50
2022/09/29 22:46:11;;;;;;;;;;;;;;;21.14;44.40;94707.50;10528554;28;3265;-46
2022/09/29 22:51:11;;;;;;;;;;;;;;;21.13;44.44;94695.41;10516360;28;3384;-49
2022/09/29 22:56:13;;;;;;;;;;;;;;;21.15;44.25;94690.59;10521498;28;3297;-49
2022/09/29 23:01:14;;;;;;;;;;;;;;;21.11;44.34;94682.53;10523314;28;3340;-48
2022/09/29 23:06:17;;;;;;;;;;;;;;;21.11;44.29;94681.75;10509267;28;3270;-46
2022/09/29 23:11:18;;;;;;;;;;;;;;;21.09;44.34;94687.31;10514887;28;3282;-47
2022/09/29 23:16:18;;;;;;;;;;;;;;;21.08;44.15;94686.53;10526877;28;3289;-48
2022/09/29 23:21:18;;;;;;;;;;;;;;;21.11;43.99;94689.66;10513979;28;2999;-47
2022/09/29 23:26:19;;;;;;;;;;;;;;;21.06;44.18;94691.34;10526065;28;3141;-46
2022/09/29 23:31:19;;;;;;;;;;;;;;;21.04;44.38;94688.22;10525086;28;3366;-50
2022/09/29 23:36:20;;;;;;;;;;;;;;;21.07;44.11;94700.03;10508545;28;3277;-46
2022/09/29 23:41:20;;;;;;;;;;;;;;;21.04;43.95;94698.75;10514330;28;3077;-48
2022/09/29 23:46:21;;;;;;;;;;;;;;;21.04;44.20;94690.09;10521163;28;3268;-45
2022/09/29 23:51:22;;;;;;;;;;;;;;;21.01;44.02;94691.44;10522979;28;3305;-50
2022/09/29 23:56:22;;;;;;;;;;;;;;;21.00;44.00;94704.91;10525389;28;3266;-46
